createdAt,value
2019-04-14T00:01:15.521Z,99.10
2019-04-14T00:03:54.297Z,99.20
2019-04-14T00:06:26.895Z,99.40
2019-04-14T00:08:56.662Z,99.50
2019-04-14T00:11:27.806Z,99.60
2019-04-14T00:13:58.744Z,99.60
2019-04-14T00:16:31.289Z,99.60
2019-04-14T00:19:02.012Z,99.60
2019-04-14T00:21:32.479Z,99.80
2019-04-14T00:24:03.061Z,99.90
2019-04-14T00:26:35.610Z,99.90
2019-04-14T00:29:06.804Z,99.90
2019-04-14T00:31:37.115Z,99.90
2019-04-14T00:34:18.118Z,99.90
2019-04-14T00:37:12.078Z,99.90
2019-04-14T00:39:45.120Z,99.90
2019-04-14T00:42:25.639Z,99.90
2019-04-14T00:45:02.841Z,99.90
2019-04-14T00:47:54.787Z,99.90
2019-04-14T00:50:15.378Z,99.90
2019-04-14T00:52:45.826Z,99.90
2019-04-14T00:55:16.070Z,99.90
2019-04-14T00:57:46.290Z,99.90
2019-04-14T01:00:18.814Z,99.90
2019-04-14T01:02:47.818Z,99.90
2019-04-14T01:05:17.676Z,99.90
2019-04-14T01:07:48.020Z,99.90
2019-04-14T01:10:19.254Z,99.90
2019-04-14T01:12:53.853Z,99.90
2019-04-14T01:15:24.618Z,99.90
2019-04-14T01:17:54.946Z,99.90
2019-04-14T01:20:26.036Z,99.90
2019-04-14T01:22:55.830Z,99.90
2019-04-14T01:25:26.060Z,99.90
2019-04-14T01:27:56.038Z,99.90
2019-04-14T01:30:26.272Z,99.90
2019-04-14T01:32:56.501Z,99.90
2019-04-14T01:35:27.092Z,99.90
2019-04-14T01:37:57.249Z,99.90
2019-04-14T01:40:27.314Z,99.90
2019-04-14T01:42:57.306Z,99.90
2019-04-14T01:45:27.519Z,99.90
2019-04-14T01:47:57.580Z,99.90
2019-04-14T01:50:45.620Z,99.90
2019-04-14T01:53:22.891Z,99.90
2019-04-14T01:56:03.519Z,99.90
2019-04-14T01:58:42.673Z,99.90
2019-04-14T02:01:19.524Z,99.90
2019-04-14T02:03:49.885Z,99.90
2019-04-14T02:06:20.190Z,99.90
2019-04-14T02:08:50.220Z,99.90
2019-04-14T02:11:20.560Z,99.90
2019-04-14T02:13:50.821Z,99.90
2019-04-14T02:16:29.215Z,99.90
2019-04-14T02:18:54.907Z,99.90
2019-04-14T02:21:23.833Z,99.90
2019-04-14T02:23:54.016Z,99.90
2019-04-14T02:26:24.110Z,99.90
2019-04-14T02:28:55.009Z,99.90
2019-04-14T02:31:52.893Z,99.90
2019-04-14T02:37:04.414Z,99.90
2019-04-14T02:39:29.427Z,99.90
2019-04-14T02:42:07.047Z,99.90
2019-04-14T02:49:36.844Z,99.90
2019-04-14T02:52:04.949Z,99.90
2019-04-14T02:54:46.498Z,99.90
2019-04-14T02:57:14.446Z,99.90
2019-04-14T02:59:42.925Z,99.90
2019-04-14T03:02:23.006Z,99.90
2019-04-14T03:04:45.490Z,99.90
2019-04-14T03:07:26.702Z,99.90
2019-04-14T03:09:46.676Z,99.90
2019-04-14T03:12:29.111Z,99.90
2019-04-14T03:14:59.286Z,99.90
2019-04-14T03:17:58.297Z,99.90
2019-04-14T03:23:10.743Z,99.90
2019-04-14T03:25:59.379Z,99.90
2019-04-14T03:28:36.545Z,99.90
2019-04-14T03:34:11.111Z,99.90
2019-04-14T03:38:49.737Z,99.90
2019-04-14T03:41:24.084Z,99.90
2019-04-14T03:43:41.344Z,99.90
2019-04-14T03:46:37.111Z,99.90
2019-04-14T03:56:35.564Z,99.90
2019-04-14T03:59:06.403Z,99.90
2019-04-14T04:01:36.772Z,99.90
2019-04-14T04:04:07.504Z,99.90
2019-04-14T04:06:37.816Z,99.90
2019-04-14T04:09:08.419Z,99.90
2019-04-14T04:11:39.034Z,99.90
2019-04-14T04:14:09.636Z,99.90
2019-04-14T04:16:49.286Z,99.90
2019-04-14T04:19:35.898Z,99.90
2019-04-14T04:22:23.728Z,99.90
2019-04-14T04:24:58.650Z,99.90
2019-04-14T04:27:35.159Z,99.90
2019-04-14T04:30:16.573Z,99.90
2019-04-14T04:32:54.422Z,99.90
2019-04-14T04:35:34.631Z,99.90
2019-04-14T04:38:24.749Z,99.90
2019-04-14T04:40:55.071Z,99.90
2019-04-14T04:43:25.496Z,99.90
2019-04-14T04:45:55.960Z,99.90
2019-04-14T04:48:26.420Z,99.90
2019-04-14T04:50:56.424Z,99.90
2019-04-14T04:53:26.718Z,99.90
2019-04-14T04:55:56.824Z,99.90
2019-04-14T04:58:26.674Z,99.90
2019-04-14T05:00:57.677Z,99.90
2019-04-14T05:03:27.610Z,99.90
2019-04-14T05:06:11.336Z,99.90
2019-04-14T05:08:48.037Z,99.90
2019-04-14T05:11:33.756Z,99.90
2019-04-14T05:14:10.959Z,99.90
2019-04-14T05:16:41.942Z,99.90
2019-04-14T05:19:20.588Z,99.90
2019-04-14T05:21:45.242Z,99.90
2019-04-14T05:24:15.750Z,99.90
2019-04-14T05:26:46.531Z,99.90
2019-04-14T05:29:16.767Z,99.90
2019-04-14T05:31:46.823Z,99.90
2019-04-14T05:34:17.307Z,99.90
2019-04-14T05:36:47.831Z,99.90
2019-04-14T05:39:17.831Z,99.90
2019-04-14T05:41:57.607Z,99.90
2019-04-14T05:44:19.259Z,99.90
2019-04-14T05:46:49.163Z,99.90
2019-04-14T05:49:30.256Z,99.90
2019-04-14T05:51:50.758Z,99.90
2019-04-14T05:54:20.723Z,99.90
2019-04-14T05:56:51.510Z,99.90
2019-04-14T05:59:22.397Z,99.90
2019-04-14T06:01:52.207Z,99.90
2019-04-14T06:04:22.143Z,99.90
2019-04-14T06:06:52.304Z,99.90
2019-04-14T06:09:22.145Z,99.90
2019-04-14T06:11:51.898Z,99.90
2019-04-14T06:14:21.623Z,99.90
2019-04-14T06:16:51.610Z,99.90
2019-04-14T06:19:21.367Z,99.90
2019-04-14T06:21:51.145Z,99.90
2019-04-14T06:24:20.869Z,99.90
2019-04-14T06:26:50.693Z,99.90
2019-04-14T06:29:20.499Z,99.90
2019-04-14T06:32:00.116Z,99.90
2019-04-14T06:34:46.139Z,99.90
2019-04-14T06:37:20.981Z,99.90
2019-04-14T06:39:51.924Z,99.90
2019-04-14T06:42:24.069Z,99.90
2019-04-14T06:44:53.861Z,99.90
2019-04-14T06:47:23.900Z,99.90
2019-04-14T06:49:53.992Z,99.90
2019-04-14T06:52:23.728Z,99.90
2019-04-14T06:54:53.535Z,99.90
2019-04-14T06:57:23.390Z,99.90
2019-04-14T06:59:53.216Z,99.90
2019-04-14T07:02:23.170Z,99.90
2019-04-14T07:04:52.976Z,99.90
2019-04-14T07:07:23.274Z,99.90
2019-04-14T07:09:53.134Z,99.90
2019-04-14T07:12:22.940Z,99.90
2019-04-14T07:14:52.716Z,99.90
2019-04-14T07:17:22.595Z,99.90
2019-04-14T07:20:01.770Z,99.90
2019-04-14T07:22:23.892Z,99.90
2019-04-14T07:24:53.635Z,99.90
2019-04-14T07:27:23.358Z,99.90
2019-04-14T07:30:00.334Z,99.90
2019-04-14T07:32:45.405Z,99.90
2019-04-14T07:35:49.420Z,99.90
2019-04-14T07:38:27.179Z,99.90
2019-04-14T07:41:31.143Z,99.90
2019-04-14T07:44:22.966Z,99.90
2019-04-14T07:47:00.355Z,99.90
2019-04-14T07:49:49.826Z,99.90
2019-04-14T07:52:49.506Z,99.90
2019-04-14T07:55:41.343Z,99.90
2019-04-14T07:58:48.819Z,99.90
2019-04-14T08:01:25.987Z,99.90
2019-04-14T08:04:17.921Z,99.90
2019-04-14T08:06:50.147Z,99.90
2019-04-14T08:09:19.948Z,99.90
2019-04-14T08:11:49.732Z,99.90
2019-04-14T08:14:19.589Z,99.90
2019-04-14T08:16:49.385Z,99.90
2019-04-14T08:19:19.207Z,99.90
2019-04-14T08:21:48.997Z,99.90
2019-04-14T08:24:18.795Z,99.90
2019-04-14T08:26:48.499Z,99.90
2019-04-14T08:29:18.255Z,99.90
2019-04-14T08:31:48.041Z,99.90
2019-04-14T08:34:17.770Z,99.90
2019-04-14T08:36:47.512Z,99.90
2019-04-14T08:39:17.277Z,99.90
2019-04-14T08:42:00.666Z,99.90
2019-04-14T08:44:39.615Z,99.90
2019-04-14T08:47:18.965Z,99.90
2019-04-14T08:50:14.561Z,99.90
2019-04-14T08:52:55.602Z,99.90
2019-04-14T08:55:43.397Z,99.90
2019-04-14T08:58:20.741Z,99.90
2019-04-14T09:00:58.850Z,99.90
2019-04-14T09:03:46.583Z,99.90
2019-04-14T09:06:20.771Z,99.90
2019-04-14T09:09:09.555Z,99.90
2019-04-14T09:11:44.081Z,99.90
2019-04-14T09:14:13.898Z,99.90
2019-04-14T09:16:43.638Z,99.90
2019-04-14T09:19:13.543Z,99.90
2019-04-14T09:21:43.299Z,99.90
2019-04-14T09:24:13.097Z,99.90
2019-04-14T09:26:42.787Z,99.90
2019-04-14T09:29:12.640Z,99.90
2019-04-14T09:31:42.356Z,99.90
2019-04-14T09:34:12.204Z,99.90
2019-04-14T09:36:42.893Z,99.90
2019-04-14T09:39:12.676Z,99.90
2019-04-14T09:41:42.445Z,99.90
2019-04-14T09:44:12.158Z,99.90
2019-04-14T09:46:41.897Z,99.90
2019-04-14T09:49:15.068Z,99.90
2019-04-14T09:51:47.800Z,99.90
2019-04-14T09:54:17.512Z,99.90
2019-04-14T09:56:47.280Z,99.90
2019-04-14T09:59:17.027Z,99.90
2019-04-14T10:01:48.520Z,99.90
2019-04-14T10:04:18.446Z,99.90
2019-04-14T10:06:48.324Z,99.90
2019-04-14T10:09:18.092Z,99.90
2019-04-14T10:11:52.819Z,99.90
2019-04-14T10:14:20.904Z,99.90
2019-04-14T10:16:50.662Z,99.90
2019-04-14T10:19:20.420Z,99.90
2019-04-14T10:21:50.235Z,99.90
2019-04-14T10:24:20.026Z,99.90
2019-04-14T10:26:49.830Z,99.90
2019-04-14T10:29:19.770Z,99.90
2019-04-14T10:31:49.580Z,99.90
2019-04-14T10:34:20.738Z,99.90
2019-04-14T10:36:50.536Z,99.90
2019-04-14T10:39:20.380Z,99.90
2019-04-14T10:41:52.365Z,99.90
2019-04-14T10:44:22.122Z,99.90
2019-04-14T10:46:51.868Z,99.90
2019-04-14T10:49:21.695Z,99.90
2019-04-14T10:51:51.440Z,99.90
2019-04-14T10:54:21.240Z,99.90
2019-04-14T10:56:51.037Z,99.90
2019-04-14T10:59:20.768Z,99.90
2019-04-14T11:01:50.589Z,99.90
2019-04-14T11:04:20.326Z,99.90
2019-04-14T11:06:59.578Z,99.90
2019-04-14T11:09:29.279Z,99.90
2019-04-14T11:11:59.061Z,99.90
2019-04-14T11:14:28.902Z,99.90
2019-04-14T11:16:58.618Z,99.90
2019-04-14T11:19:28.341Z,99.90
2019-04-14T11:21:58.098Z,99.90
2019-04-14T11:24:27.870Z,99.90
2019-04-14T11:26:57.729Z,99.90
2019-04-14T11:29:27.516Z,99.90
2019-04-14T11:32:25.910Z,99.90
2019-04-14T11:35:16.927Z,99.90
2019-04-14T11:38:09.007Z,99.90
2019-04-14T11:40:44.651Z,99.90
2019-04-14T11:43:14.687Z,99.90
2019-04-14T11:45:44.475Z,99.90
2019-04-14T11:48:15.177Z,99.90
2019-04-14T11:50:45.045Z,99.90
2019-04-14T11:53:15.090Z,99.90
2019-04-14T11:55:45.748Z,99.90
2019-04-14T11:58:17.222Z,99.90
2019-04-14T12:01:06.033Z,99.90
2019-04-14T12:03:43.315Z,99.90
2019-04-14T12:06:29.967Z,99.90
2019-04-14T12:09:07.885Z,99.90
2019-04-14T12:11:37.817Z,99.90
2019-04-14T12:14:07.663Z,99.90
2019-04-14T12:16:40.589Z,99.90
2019-04-14T12:19:10.413Z,99.90
2019-04-14T12:21:40.655Z,99.90
2019-04-14T12:24:13.681Z,99.90
2019-04-14T12:26:43.425Z,99.90
2019-04-14T12:29:14.115Z,99.90
2019-04-14T12:31:44.899Z,99.90
2019-04-14T12:34:14.775Z,99.90
2019-04-14T12:36:44.618Z,99.90
2019-04-14T12:39:20.302Z,99.90
2019-04-14T12:42:05.785Z,99.90
2019-04-14T12:44:53.422Z,99.90
2019-04-14T12:47:42.981Z,99.90
2019-04-14T12:50:20.467Z,99.90
2019-04-14T12:52:55.839Z,99.90
2019-04-14T12:55:26.278Z,99.90
2019-04-14T12:57:59.583Z,99.90
2019-04-14T13:00:38.498Z,99.90
2019-04-14T13:03:08.308Z,99.90
2019-04-14T13:05:39.659Z,99.90
2019-04-14T13:08:09.442Z,99.90
2019-04-14T13:10:39.424Z,99.90
2019-04-14T13:13:09.257Z,99.90
2019-04-14T13:15:39.178Z,99.90
2019-04-14T13:18:09.011Z,99.90
2019-04-14T13:20:38.790Z,99.90
2019-04-14T13:23:08.568Z,99.90
2019-04-14T13:25:38.362Z,99.90
2019-04-14T13:28:08.312Z,99.90
2019-04-14T13:30:41.280Z,99.90
2019-04-14T13:33:11.108Z,99.90
2019-04-14T13:35:40.957Z,99.90
2019-04-14T13:38:10.755Z,99.90
2019-04-14T13:40:40.880Z,99.90
2019-04-14T13:43:10.568Z,99.90
2019-04-14T13:45:40.305Z,99.90
2019-04-14T13:48:10.079Z,99.90
2019-04-14T13:50:39.799Z,99.80
2019-04-14T13:53:09.660Z,98.90
2019-04-14T13:55:39.398Z,98.80
2019-04-14T13:58:09.079Z,98.60
2019-04-14T14:00:38.859Z,98.40
2019-04-14T14:03:11.584Z,98.40
2019-04-14T14:05:43.653Z,98.10
2019-04-14T14:08:12.994Z,97.80
2019-04-14T14:10:42.897Z,96.80
2019-04-14T14:13:22.215Z,96.20
2019-04-14T14:16:10.088Z,95.30
2019-04-14T14:18:51.119Z,95.30
2019-04-14T14:21:48.775Z,95.30
2019-04-14T14:24:36.223Z,95.80
2019-04-14T14:27:07.388Z,96.10
2019-04-14T14:29:39.028Z,95.60
2019-04-14T14:32:16.048Z,95.90
2019-04-14T14:34:45.893Z,95.60
2019-04-14T14:37:15.732Z,95.80
2019-04-14T14:39:45.535Z,96.10
2019-04-14T14:42:15.218Z,96.70
2019-04-14T14:44:50.903Z,97.30
2019-04-14T14:47:23.747Z,98.10
2019-04-14T14:50:03.743Z,98.70
2019-04-14T14:52:35.154Z,99.30
2019-04-14T14:55:05.748Z,99.90
2019-04-14T14:57:35.422Z,99.90
2019-04-14T15:00:08.914Z,99.90
2019-04-14T15:02:38.765Z,99.90
2019-04-14T15:05:08.550Z,99.90
2019-04-14T15:07:38.311Z,99.90
2019-04-14T15:10:08.389Z,99.90
2019-04-14T15:12:38.125Z,99.30
2019-04-14T15:15:08.287Z,98.90
2019-04-14T15:17:38.030Z,98.20
2019-04-14T15:20:07.913Z,97.00
2019-04-14T15:22:37.776Z,97.10
2019-04-14T15:25:07.720Z,96.70
2019-04-14T15:27:37.446Z,96.50
2019-04-14T15:30:11.868Z,96.20
2019-04-14T15:32:41.646Z,96.00
2019-04-14T15:35:11.559Z,95.40
2019-04-14T15:37:41.270Z,94.70
2019-04-14T15:40:11.571Z,94.70
2019-04-14T15:42:41.402Z,94.10
2019-04-14T15:45:14.018Z,93.70
2019-04-14T15:47:43.341Z,93.20
2019-04-14T15:50:13.382Z,93.00
2019-04-14T15:52:43.141Z,92.50
2019-04-14T15:55:14.137Z,92.40
2019-04-14T15:57:50.678Z,92.00
2019-04-14T16:00:38.266Z,92.30
2019-04-14T16:03:42.379Z,93.00
2019-04-14T16:06:32.706Z,93.50
2019-04-14T16:09:21.703Z,93.70
2019-04-14T16:12:12.182Z,94.30
2019-04-14T16:15:02.229Z,94.70
2019-04-14T16:17:40.907Z,94.60
2019-04-14T16:20:37.025Z,94.70
2019-04-14T16:23:09.821Z,95.10
2019-04-14T16:25:49.619Z,95.20
2019-04-14T16:28:28.065Z,95.50
2019-04-14T16:31:08.927Z,95.70
2019-04-14T16:33:57.971Z,95.70
2019-04-14T16:36:27.771Z,95.90
2019-04-14T16:38:57.579Z,95.70
2019-04-14T16:41:27.340Z,95.60
2019-04-14T16:43:57.151Z,95.70
2019-04-14T16:46:26.963Z,95.80
2019-04-14T16:48:57.810Z,95.50
2019-04-14T16:51:34.066Z,95.70
2019-04-14T16:54:12.180Z,95.80
2019-04-14T16:56:52.494Z,95.40
2019-04-14T16:59:22.412Z,95.60
2019-04-14T17:01:52.214Z,95.90
2019-04-14T17:04:21.960Z,96.10
2019-04-14T17:06:51.733Z,96.10
2019-04-14T17:09:21.690Z,96.10
2019-04-14T17:11:51.465Z,95.60
2019-04-14T17:14:28.480Z,95.60
2019-04-14T17:17:32.978Z,95.90
2019-04-14T17:20:08.921Z,95.70
2019-04-14T17:22:49.948Z,95.50
2019-04-14T17:25:27.828Z,95.20
2019-04-14T17:28:07.744Z,95.20
2019-04-14T17:30:44.776Z,95.10
2019-04-14T17:33:19.003Z,95.00
2019-04-14T17:36:04.363Z,94.60
2019-04-14T17:38:42.437Z,94.80
2019-04-14T17:41:18.841Z,94.80
2019-04-14T17:43:53.977Z,94.50
2019-04-14T17:46:43.966Z,94.70
2019-04-14T17:49:27.917Z,94.70
2019-04-14T17:52:15.932Z,94.70
2019-04-14T17:54:59.281Z,94.70
2019-04-14T17:57:44.000Z,94.80
2019-04-14T18:00:38.549Z,95.10
2019-04-14T18:03:26.479Z,95.40
2019-04-14T18:05:59.914Z,96.40
2019-04-14T18:08:42.636Z,96.70
2019-04-14T18:11:18.444Z,96.80
2019-04-14T18:13:59.013Z,97.20
2019-04-14T18:16:33.725Z,97.50
2019-04-14T18:19:13.854Z,97.80
2019-04-14T18:21:44.745Z,98.20
2019-04-14T18:24:14.552Z,98.70
2019-04-14T18:26:44.366Z,98.80
2019-04-14T18:29:30.986Z,99.10
2019-04-14T18:32:12.081Z,99.60
2019-04-14T18:34:49.855Z,99.80
2019-04-14T18:37:38.831Z,99.90
2019-04-14T18:40:26.843Z,99.90
2019-04-14T18:43:10.814Z,99.90
2019-04-14T18:45:54.409Z,99.90
2019-04-14T18:48:28.903Z,99.90
2019-04-14T18:51:17.806Z,99.90
2019-04-14T18:53:56.568Z,99.90
2019-04-14T18:56:48.381Z,99.90
2019-04-14T18:59:28.035Z,99.90
2019-04-14T19:01:57.850Z,99.90
2019-04-14T19:04:28.112Z,99.90
2019-04-14T19:06:59.791Z,99.90
2019-04-14T19:09:29.508Z,99.90
2019-04-14T19:12:21.153Z,99.90
2019-04-14T19:14:55.916Z,99.90
2019-04-14T19:17:30.605Z,99.90
2019-04-14T19:20:04.121Z,99.90
2019-04-14T19:22:33.903Z,99.90
2019-04-14T19:25:08.380Z,99.90
2019-04-14T19:27:35.047Z,99.90
2019-04-14T19:30:05.883Z,99.90
2019-04-14T19:32:35.714Z,99.90
2019-04-14T19:35:05.626Z,99.90
2019-04-14T19:37:35.446Z,99.90
2019-04-14T19:40:06.542Z,99.90
2019-04-14T19:42:36.577Z,99.90
2019-04-14T19:45:08.538Z,99.90
2019-04-14T19:47:39.592Z,99.90
2019-04-14T19:50:09.676Z,99.90
2019-04-14T19:52:39.368Z,99.90
2019-04-14T19:55:19.820Z,99.90
2019-04-14T19:57:40.848Z,99.90
2019-04-14T20:00:11.175Z,99.90
2019-04-14T20:02:41.319Z,99.90
2019-04-14T20:05:18.563Z,99.90
2019-04-14T20:07:51.824Z,99.90
2019-04-14T20:10:21.551Z,99.90
2019-04-14T20:12:51.439Z,99.90
2019-04-14T20:15:27.786Z,99.90
2019-04-14T20:18:16.593Z,99.90
2019-04-14T20:21:05.855Z,99.90
2019-04-14T20:23:57.775Z,99.90
2019-04-14T20:26:43.351Z,99.90
2019-04-14T20:29:16.072Z,99.90
2019-04-14T20:31:50.242Z,99.90
2019-04-14T20:34:19.991Z,99.90
2019-04-14T20:36:49.842Z,99.90
2019-04-14T20:39:19.876Z,99.90
2019-04-14T20:41:49.640Z,99.90
2019-04-14T20:44:19.609Z,99.90
2019-04-14T20:46:49.510Z,99.90
2019-04-14T20:49:20.242Z,99.90
2019-04-14T20:51:50.067Z,99.90
2019-04-14T20:54:19.880Z,99.90
2019-04-14T20:56:49.649Z,99.90
2019-04-14T20:59:19.437Z,99.90
2019-04-14T21:02:07.206Z,99.90
2019-04-14T21:04:48.860Z,99.90
2019-04-14T21:07:46.595Z,99.90
2019-04-14T21:10:20.944Z,99.90
2019-04-14T21:12:59.076Z,99.90
2019-04-14T21:15:51.424Z,99.90
2019-04-14T21:18:30.523Z,99.90
2019-04-14T21:21:04.876Z,99.90
2019-04-14T21:23:48.157Z,99.90
2019-04-14T21:26:55.612Z,99.90
2019-04-14T21:29:44.415Z,99.90
2019-04-14T21:32:22.423Z,99.90
2019-04-14T21:35:15.353Z,99.90
2019-04-14T21:38:16.185Z,99.90
2019-04-14T21:40:48.455Z,99.90
2019-04-14T21:43:18.347Z,99.90
2019-04-14T21:45:48.018Z,99.90
2019-04-14T21:48:18.872Z,99.90
2019-04-14T21:50:48.562Z,99.90
2019-04-14T21:53:18.305Z,99.90
2019-04-14T21:55:49.037Z,99.90
2019-04-14T21:58:36.360Z,99.90
2019-04-14T22:01:51.682Z,99.90
2019-04-14T22:04:53.822Z,99.90
2019-04-14T22:07:57.896Z,99.90
2019-04-14T22:10:46.846Z,99.90
2019-04-14T22:13:17.502Z,99.90
2019-04-14T22:15:47.201Z,99.90
2019-04-14T22:18:17.536Z,99.90
2019-04-14T22:20:47.215Z,99.90
2019-04-14T22:23:17.050Z,99.90
2019-04-14T22:25:46.872Z,99.90
2019-04-14T22:28:16.726Z,99.90
2019-04-14T22:30:47.594Z,99.90
2019-04-14T22:33:17.578Z,99.90
2019-04-14T22:35:47.473Z,99.90
2019-04-14T22:38:17.404Z,99.90
2019-04-14T22:40:47.119Z,99.90
2019-04-14T22:43:17.071Z,99.90
2019-04-14T22:45:46.881Z,99.90
2019-04-14T22:48:18.089Z,99.90
2019-04-14T22:50:47.975Z,99.90
2019-04-14T22:53:17.676Z,99.90
2019-04-14T22:55:47.517Z,99.90
2019-04-14T22:58:18.475Z,99.90
2019-04-14T23:00:55.645Z,99.90
2019-04-14T23:03:47.509Z,99.90
2019-04-14T23:06:39.133Z,99.90
2019-04-14T23:09:28.925Z,99.90
2019-04-14T23:12:07.757Z,99.90
2019-04-14T23:14:48.817Z,99.90
2019-04-14T23:17:28.801Z,99.90
2019-04-14T23:20:17.697Z,99.90
2019-04-14T23:22:54.722Z,99.90
2019-04-14T23:25:24.477Z,99.90
2019-04-14T23:27:54.396Z,99.90
2019-04-14T23:30:24.245Z,99.90
2019-04-14T23:32:54.005Z,99.90
2019-04-14T23:35:23.795Z,99.90
2019-04-14T23:37:53.590Z,99.90
2019-04-14T23:40:23.332Z,99.90
2019-04-14T23:42:53.055Z,99.90
2019-04-14T23:45:22.794Z,99.80
2019-04-14T23:47:52.477Z,99.80
2019-04-14T23:50:22.266Z,99.90
2019-04-14T23:52:52.051Z,99.90
2019-04-14T23:55:21.819Z,99.90
2019-04-14T23:57:51.608Z,99.90
